EHRD

Rotterdam Airport

Rotterdam, The Netherlands
METAR EHRD 222225Z AUTO 24006KT 9999 NCD 05/03 Q1033 NOSIG
Observed Flight Rules
Oct-22 @ 22:25 UTC (29 minutes ago) Visual Flight Rules
Wind Visibility Clouds
240° at 6 knots 10,000+ meters
  • Clear skies
Temperatures Readings
Current 5°C / 41°F
Dewpoint 3°C / 37°F
Humidity 87%
Altimeter 30.5" Hg
Pressure 1033 hPa
Elevation -5
METAR EHRD 222225Z AUTO 24006KT 9999 NCD 05/03 Q1033 NOSIG
Observed Flight Rules
Oct-22 @ 22:25 UTC
(29 minutes ago)
VFR
Wind Visibility
240° at 6 knots 10,000+ meters
Clouds
  • Clear skies
Temperature Dewpoint
5°C / 41°F 3°C / 37°F
Humidity Altimeter Pressure
87% 30.5" Hg 1033 hPa